Bookmark and Share
Track history (hours):
 

Drifting buoy 41613

Last reported at 2014-Apr-16 09:00 UTC. Time now 2014-Apr-16 10:42 UTC.
Position N 29°16' W 076°15'.

Water temperature 23.9 ° C

NotesDate/timePositionNaut miles runAvg speedWind from/ knotsBaromVisibWave heightAir tempDewpointWater temp
2014-Apr-16 09:00N 29°16' W 076°15'1 0.2 23.9
2014-Apr-16 02:00N 29°16' W 076°15'6 1.5 24.0
2014-Apr-15 22:00N 29°10' W 076°19'0 0.0 24.0
2014-Apr-15 21:00N 29°10' W 076°19'0 0.0 24.0
2014-Apr-15 20:00N 29°10' W 076°19'2 2.0 24.0
2014-Apr-15 19:00N 29°09' W 076°21'8 1.6 24.0
2014-Apr-15 14:00N 29°02' W 076°24'1 0.2 23.9
2014-Apr-15 10:00N 29°01' W 076°25'3 2.9 23.8
2014-Apr-15 09:00N 28°59' W 076°27'0 0.0 23.8
2014-Apr-15 08:00N 28°59' W 076°27'0 0.0 23.8
2014-Apr-15 05:00N 28°59' W 076°27'4 1.8 23.8
2014-Apr-15 03:00N 28°55' W 076°28'1 0.7 23.8
2014-Apr-15 02:00N 28°55' W 076°27'0 0.5 23.7
2014-Apr-15 01:00N 28°55' W 076°28'3 1.0 23.8
2014-Apr-14 22:00N 28°52' W 076°28'0 0.0 23.8
2014-Apr-14 21:00N 28°52' W 076°28'0 0.0 23.8
2014-Apr-14 20:00N 28°52' W 076°28'2 1.6 23.8
2014-Apr-14 19:00N 28°51' W 076°30'3 3.1 23.8
2014-Apr-14 18:00N 28°48' W 076°30'0 0.0 23.8
2014-Apr-14 16:00N 28°48' W 076°30'3 1.5 23.7
2014-Apr-14 14:00N 28°45' W 076°31'1 0.2 23.7
2014-Apr-14 08:00N 28°44' W 076°31'2 0.5 23.7
2014-Apr-14 03:00N 28°43' W 076°30'0 0.0 23.7
2014-Apr-14 02:00N 28°43' W 076°30'0 0.1 23.7
2014-Apr-13 23:00N 28°43' W 076°29'1 0.1 23.7
2014-Apr-13 14:00N 28°42' W 076°30'0 0.0 23.6
2014-Apr-13 12:00N 28°42' W 076°30'0 0.0 23.6
2014-Apr-13 10:00N 28°42' W 076°30'0 0.2 23.6
2014-Apr-13 09:00N 28°42' W 076°30'0 0.3 23.6
2014-Apr-13 08:00N 28°42' W 076°30'3 0.7 23.6
2014-Apr-13 03:00N 28°42' W 076°26'0 0.0 23.6
2014-Apr-13 01:00N 28°42' W 076°26'2 0.6 23.6
2014-Apr-12 21:00N 28°41' W 076°23'0 0.0 23.7
2014-Apr-12 20:00N 28°41' W 076°23'0 0.0 23.8
2014-Apr-12 18:00N 28°41' W 076°23'0 0.5 23.8
2014-Apr-12 17:00N 28°41' W 076°24'0 0.0 23.8
2014-Apr-12 16:00N 28°41' W 076°24'1 0.7 23.8
2014-Apr-12 15:00N 28°41' W 076°24'3 3.0 23.7
2014-Apr-12 14:00N 28°38' W 076°23'1 0.2 23.7
2014-Apr-12 10:00N 28°38' W 076°22'0 0.0 23.6
2014-Apr-12 09:00N 28°38' W 076°22'1 1.3 23.6
2014-Apr-12 08:00N 28°37' W 076°21'0 0.0 23.6
2014-Apr-12 07:00N 28°37' W 076°21'1 1.4 23.7
2014-Apr-12 06:00N 28°36' W 076°20'2 0.8 23.7
2014-Apr-12 03:00N 28°35' W 076°17'1 1.1 23.6
2014-Apr-12 02:00N 28°34' W 076°16'3 1.7 23.7
2014-Apr-12 00:00N 28°32' W 076°13'0 0.0 23.7
2014-Apr-11 23:00N 28°32' W 076°13'0 0.0 23.7
2014-Apr-11 20:00N 28°32' W 076°13'2 0.5 23.8
2014-Apr-11 15:00N 28°31' W 076°12'2 2.3 23.7
2014-Apr-11 14:00N 28°29' W 076°10'1 0.4 23.7
2014-Apr-11 11:00N 28°28' W 076°09'0 0.3 23.6
2014-Apr-11 10:00N 28°28' W 076°09'2 2.0 23.6
2014-Apr-11 09:00N 28°27' W 076°07'1 1.2 23.6
2014-Apr-11 08:00N 28°26' W 076°06'0 0.1 23.6
2014-Apr-11 07:00N 28°26' W 076°06'5 4.9 23.6
2014-Apr-11 06:00N 28°23' W 076°02'0 0.0 23.7
2014-Apr-11 03:00N 28°23' W 076°02'0 0.1 23.7
2014-Apr-11 02:00N 28°23' W 076°02'2 2.3 23.7
2014-Apr-11 01:00N 28°22' W 075°59'2 0.4 23.7
2014-Apr-10 20:00N 28°22' W 075°57'2 0.7 23.8
2014-Apr-10 17:00N 28°22' W 075°54'2 0.4 23.8
2014-Apr-10 12:00N 28°20' W 075°53'2 1.1 23.7
2014-Apr-10 10:00N 28°18' W 075°51'0 0.2 23.7
2014-Apr-10 09:00N 28°18' W 075°51'1 0.7 23.7
2014-Apr-10 07:00N 28°18' W 075°50'13 1.9 23.8
2014-Apr-10 00:00N 28°14' W 075°36'1 0.3 24.0
2014-Apr-09 22:00N 28°14' W 075°35'7 3.6 24.0
2014-Apr-09 20:00N 28°17' W 075°28'2 1.7 24.0
2014-Apr-09 19:00N 28°19' W 075°26'0 0.0 24.1
2014-Apr-09 17:00N 28°19' W 075°26'0 0.0 24.1
2014-Apr-09 15:00N 28°19' W 075°26'0 0.0 24.1
2014-Apr-09 14:00N 28°19' W 075°26'2 1.5 24.2
2014-Apr-09 13:00N 28°20' W 075°25'2 0.5 24.2
2014-Apr-09 09:00N 28°20' W 075°23'1 0.6 24.4
2014-Apr-09 07:00N 28°20' W 075°21'0 0.0 24.5
2014-Apr-09 06:00N 28°20' W 075°21'2 2.3 24.5
2014-Apr-09 05:00N 28°20' W 075°19'1 0.3 24.5
2014-Apr-09 03:00N 28°20' W 075°18'2 0.7 24.5
2014-Apr-09 00:00N 28°21' W 075°16'3 1.7 24.6
2014-Apr-08 22:00N 28°23' W 075°13'0 0.0 24.6
2014-Apr-08 20:00N 28°23' W 075°13'2 1.7 24.7
2014-Apr-08 19:00N 28°24' W 075°12'0 0.0 24.7
2014-Apr-08 17:00N 28°24' W 075°12'1 0.5 24.7
2014-Apr-08 15:00N 28°25' W 075°13'0 0.0 24.7
2014-Apr-08 14:00N 28°25' W 075°13'1 1.5 24.7
2014-Apr-08 13:00N 28°25' W 075°11'1 0.5 24.6
2014-Apr-08 11:00N 28°26' W 075°10'1 1.0 24.7
2014-Apr-08 10:00N 28°26' W 075°09'1 1.1 24.7
2014-Apr-08 09:00N 28°27' W 075°10'0 0.0 24.7
2014-Apr-08 05:00N 28°27' W 075°10'2 0.7 24.7
2014-Apr-08 02:00N 28°29' W 075°09'2 2.2 24.8
2014-Apr-08 01:00N 28°31' W 075°08'0 0.0 24.8
2014-Apr-08 00:00N 28°31' W 075°08'1 0.4 24.8
2014-Apr-07 21:00N 28°32' W 075°07'1 1.2 24.9
2014-Apr-07 20:00N 28°33' W 075°09'1 0.7 24.9
2014-Apr-07 19:00N 28°34' W 075°09'1 0.6 24.9
2014-Apr-07 18:00N 28°34' W 075°09'0 0.1 24.9
2014-Apr-07 17:00N 28°34' W 075°09'1 1.3 24.9
2014-Apr-07 16:00N 28°36' W 075°09'2 1.9 24.9
2014-Apr-07 15:00N 28°37' W 075°10'2 0.6 24.8
2014-Apr-07 12:00N 28°38' W 075°11'0 0.0 24.7
2014-Apr-07 11:00N 28°38' W 075°11'0 0.1 24.7
2014-Apr-07 10:00N 28°38' W 075°11'0 0.3 24.7
2014-Apr-07 09:00N 28°38' W 075°12'2 2.0 24.8
2014-Apr-07 08:00N 28°39' W 075°14'1 0.2 24.8
2014-Apr-07 03:00N 28°38' W 075°14'1 0.8 25.1
2014-Apr-07 02:00N 28°38' W 075°15'1 0.4 25.1
2014-Apr-07 00:00N 28°37' W 075°16'0 0.0 25.1
2014-Apr-06 23:00N 28°37' W 075°16'1 0.7 25.2
2014-Apr-06 22:00N 28°36' W 075°16'1 0.6 25.3
2014-Apr-06 20:00N 28°36' W 075°17'1 0.6 25.3
2014-Apr-06 19:00N 28°35' W 075°17'1 1.2 25.3
2014-Apr-06 18:00N 28°35' W 075°19'1 1.3 25.4
2014-Apr-06 17:00N 28°34' W 075°19'0 0.0 25.2
2014-Apr-06 16:00N 28°34' W 075°19'0 0.3 25.1
2014-Apr-06 15:00N 28°33' W 075°19'1 0.9 24.9
2014-Apr-06 14:00N 28°32' W 075°20'3 0.7 24.8
2014-Apr-06 09:00N 28°29' W 075°21'   24.8

Dump ship's entire track history

sailing weather and tide predictions

Buoy 41613